Terminal Aerodrome Forecast
Issued by NWS Chicago, IL

Home | Current Version | Previous Version | Graphics & Text | Print | Product List | Glossary On
Versions: 1 2 3 4 5 6 7 8 9 10 11 12 13 14 15 16 17 18 19 20 21 22 23 24 25 26 27 28 29 30 31 32 33 34 35
000
FTUS43 KLOT 040325 AAD
TAFRFD
TAF AMD
KRFD 040325Z 0403/0424 15010KT P6SM VCTS SCT060CB BKN080
     FM040800 20010KT 5SM -SHRA VCTS OVC040CB
     FM041500 36008KT P6SM VCSH BKN015
     FM041800 03010KT P6SM SCT020=

USA.gov is the U.S. government's official web portal to all federal, state and local government web resources and services.